Albright, Illinois
Current Conditions -  °F | °C
As of 2:35 AM on Saturday 25 Oct 2014 (Local Time) from KPRG Reporting Station
Overcast Overcast  
Wind Chill: 16°   Ceiling: 3900
Heat Index: 16°   Visibility: 10mi
Dew Point: 12°   Wind: 7mph
Humidity: 81%   Direction: 200°SSW
Pressure: 29.97"   Gusts: NA
Location:  39.4361°N, 87.7043°W
Report Text: KPRG 250735Z AUTO 20006KT 10SM BKN039 OVC044 16/12 A2997 RMK AO2 T01550122
Loading
Personal Weather Stations






























Interactive Weather Map
Tropical Storm Tracking
New forecast layout! Learn more

10-Day Weather Forecast

Advertisements
Track Severe Weather on mobile